createdAt,value
2022-08-26T00:00:20.686Z,4.37
2022-08-26T00:03:08.860Z,4.83
2022-08-26T00:05:57.237Z,4.10
2022-08-26T00:08:46.130Z,4.70
2022-08-26T00:11:35.861Z,3.80
2022-08-26T00:14:28.438Z,3.77
2022-08-26T00:17:19.338Z,4.43
2022-08-26T00:20:11.157Z,4.93
2022-08-26T00:22:59.221Z,3.42
2022-08-26T00:25:47.403Z,3.60
2022-08-26T00:28:36.306Z,4.93
2022-08-26T00:31:24.447Z,3.20
2022-08-26T00:34:12.977Z,3.37
2022-08-26T00:37:02.194Z,3.33
2022-08-26T00:39:52.257Z,4.20
2022-08-26T00:42:41.336Z,3.67
2022-08-26T00:45:42.367Z,3.90
2022-08-26T00:48:33.408Z,3.10
2022-08-26T00:51:24.928Z,4.00
2022-08-26T00:54:21.142Z,3.13
2022-08-26T00:57:16.415Z,3.62
2022-08-26T01:00:10.824Z,3.50
2022-08-26T01:03:01.301Z,3.47
2022-08-26T01:05:51.685Z,2.73
2022-08-26T01:08:40.154Z,3.27
2022-08-26T01:11:29.338Z,3.10
2022-08-26T01:14:19.548Z,3.57
2022-08-26T01:17:09.491Z,2.75
2022-08-26T01:20:04.250Z,2.97
2022-08-26T01:22:57.661Z,3.33
2022-08-26T01:25:51.213Z,2.83
2022-08-26T01:28:40.645Z,3.07
2022-08-26T01:31:32.339Z,2.80
2022-08-26T01:34:24.867Z,3.25
2022-08-26T01:37:16.257Z,2.63
2022-08-26T01:40:07.412Z,3.65
2022-08-26T01:42:56.647Z,3.00
2022-08-26T01:45:46.572Z,3.30
2022-08-26T01:48:38.758Z,2.92
2022-08-26T01:51:27.939Z,3.03
2022-08-26T01:54:16.330Z,2.93
2022-08-26T01:59:59.903Z,3.10
2022-08-26T02:05:37.685Z,3.07
2022-08-26T02:08:29.276Z,3.00
2022-08-26T02:11:18.412Z,3.47
2022-08-26T02:14:11.655Z,2.93
2022-08-26T02:17:00.696Z,2.83
2022-08-26T02:19:50.452Z,2.80
2022-08-26T02:22:40.389Z,3.40
2022-08-26T02:25:32.334Z,3.13
2022-08-26T02:28:20.536Z,5.00
2022-08-26T02:31:08.885Z,4.20
2022-08-26T02:34:08.539Z,3.40
2022-08-26T02:37:00.565Z,3.13
2022-08-26T02:39:49.350Z,3.37
2022-08-26T02:42:37.343Z,3.20
2022-08-26T02:45:28.391Z,3.20
2022-08-26T02:48:19.491Z,3.17
2022-08-26T02:51:08.539Z,3.10
2022-08-26T02:53:56.902Z,3.07
2022-08-26T02:56:45.839Z,3.30
2022-08-26T02:59:35.454Z,3.83
2022-08-26T03:02:24.046Z,3.60
2022-08-26T03:05:12.822Z,3.17
2022-08-26T03:08:01.292Z,3.87
2022-08-26T03:10:50.435Z,3.27
2022-08-26T03:13:38.968Z,3.47
2022-08-26T03:16:32.282Z,3.83
2022-08-26T03:19:22.185Z,3.70
2022-08-26T03:22:11.491Z,2.93
2022-08-26T03:27:51.412Z,2.67
2022-08-26T03:30:44.798Z,4.07
2022-08-26T03:33:34.061Z,3.97
2022-08-26T03:36:22.414Z,3.33
2022-08-26T03:39:10.741Z,2.93
2022-08-26T03:41:59.223Z,2.90
2022-08-26T03:44:47.535Z,3.47
2022-08-26T03:47:36.918Z,3.00
2022-08-26T03:50:27.311Z,2.60
2022-08-26T03:53:15.486Z,3.17
2022-08-26T03:56:05.581Z,2.67
2022-08-26T03:58:54.323Z,2.70
2022-08-26T04:01:43.201Z,3.07
2022-08-26T04:04:31.638Z,3.00
2022-08-26T04:07:19.589Z,2.80
2022-08-26T04:10:09.977Z,3.73
2022-08-26T04:12:59.501Z,3.00
2022-08-26T04:15:47.604Z,2.80
2022-08-26T04:18:37.651Z,2.93
2022-08-26T04:21:34.686Z,2.97
2022-08-26T04:24:26.009Z,3.00
2022-08-26T04:27:16.589Z,3.40
2022-08-26T04:30:06.455Z,3.73
2022-08-26T04:32:57.110Z,3.05
2022-08-26T04:35:46.029Z,2.77
2022-08-26T04:38:36.472Z,3.50
2022-08-26T04:41:24.764Z,3.00
2022-08-26T04:44:13.221Z,3.40
2022-08-26T04:47:01.785Z,3.10
2022-08-26T04:49:54.620Z,3.13
2022-08-26T04:52:43.164Z,3.20
2022-08-26T04:55:38.635Z,2.93
2022-08-26T04:58:31.794Z,2.87
2022-08-26T05:01:20.966Z,3.17
2022-08-26T05:04:09.229Z,3.20
2022-08-26T05:07:02.843Z,2.67
2022-08-26T05:09:52.324Z,3.70
2022-08-26T05:12:40.154Z,3.23
2022-08-26T05:15:28.826Z,4.17
2022-08-26T05:18:20.166Z,3.23
2022-08-26T05:21:15.436Z,4.05
2022-08-26T05:24:05.295Z,4.20
2022-08-26T05:26:53.248Z,3.63
2022-08-26T05:29:41.876Z,3.17
2022-08-26T05:32:31.550Z,3.47
2022-08-26T05:35:19.900Z,3.20
2022-08-26T05:38:12.808Z,3.40
2022-08-26T05:41:01.457Z,3.70
2022-08-26T05:43:52.440Z,3.87
2022-08-26T05:46:44.170Z,3.17
2022-08-26T05:49:32.607Z,3.45
2022-08-26T05:52:21.509Z,3.27
2022-08-26T05:55:14.704Z,2.87
2022-08-26T05:58:04.558Z,3.10
2022-08-26T06:01:02.955Z,3.53
2022-08-26T06:03:53.048Z,3.27
2022-08-26T06:06:41.096Z,3.27
2022-08-26T06:09:29.708Z,3.03
2022-08-26T06:12:18.814Z,3.00
2022-08-26T06:15:09.141Z,3.77
2022-08-26T06:17:57.322Z,3.10
2022-08-26T06:20:56.895Z,3.23
2022-08-26T06:24:05.905Z,3.10
2022-08-26T06:26:56.406Z,3.00
2022-08-26T06:29:45.100Z,3.37
2022-08-26T06:32:33.827Z,3.10
2022-08-26T06:35:22.598Z,2.73
2022-08-26T06:38:11.468Z,2.93
2022-08-26T06:41:00.442Z,3.70
2022-08-26T06:43:48.832Z,2.93
2022-08-26T06:46:37.542Z,2.80
2022-08-26T06:49:26.926Z,2.97
2022-08-26T06:52:21.188Z,3.03
2022-08-26T06:55:12.779Z,3.37
2022-08-26T06:58:01.444Z,5.70
2022-08-26T07:03:40.679Z,3.63
2022-08-26T07:06:29.050Z,4.03
2022-08-26T07:09:18.128Z,3.07
2022-08-26T07:12:06.953Z,3.03
2022-08-26T07:14:55.603Z,2.80
2022-08-26T07:17:45.933Z,2.90
2022-08-26T07:20:36.116Z,3.03
2022-08-26T07:23:24.188Z,3.13
2022-08-26T07:26:15.795Z,3.23
2022-08-26T07:29:04.734Z,3.50
2022-08-26T07:31:53.045Z,2.90
2022-08-26T07:34:42.087Z,2.67
2022-08-26T07:37:35.406Z,2.77
2022-08-26T07:40:24.143Z,2.83
2022-08-26T07:43:12.167Z,2.53
2022-08-26T07:46:00.463Z,2.53
2022-08-26T07:48:49.897Z,3.83
2022-08-26T07:51:39.155Z,2.90
2022-08-26T07:54:27.977Z,2.93
2022-08-26T07:57:16.306Z,2.73
2022-08-26T08:00:14.045Z,2.62
2022-08-26T08:03:05.132Z,3.03
2022-08-26T08:05:53.596Z,3.33
2022-08-26T08:08:42.023Z,2.73
2022-08-26T08:11:30.671Z,2.77
2022-08-26T08:14:20.457Z,2.80
2022-08-26T08:19:57.848Z,3.03
2022-08-26T08:22:46.397Z,2.80
2022-08-26T08:25:35.900Z,2.63
2022-08-26T08:28:24.257Z,2.70
2022-08-26T08:31:38.597Z,2.87
2022-08-26T08:34:30.561Z,2.83
2022-08-26T08:37:19.078Z,2.97
2022-08-26T08:40:10.143Z,2.50
2022-08-26T08:43:03.571Z,2.60
2022-08-26T08:45:57.841Z,2.67
2022-08-26T08:48:56.727Z,2.93
2022-08-26T08:51:55.046Z,2.93
2022-08-26T08:54:43.842Z,2.63
2022-08-26T08:57:43.091Z,3.43
2022-08-26T09:00:40.001Z,2.60
2022-08-26T09:03:41.128Z,2.93
2022-08-26T09:06:29.561Z,2.52
2022-08-26T09:09:24.520Z,2.63
2022-08-26T09:12:20.324Z,2.70
2022-08-26T09:15:18.844Z,2.67
2022-08-26T09:18:18.331Z,2.60
2022-08-26T09:21:09.240Z,2.97
2022-08-26T09:23:58.584Z,2.85
2022-08-26T09:26:48.340Z,2.70
2022-08-26T09:29:44.339Z,2.37
2022-08-26T09:32:33.154Z,2.60
2022-08-26T09:35:27.442Z,2.50
2022-08-26T09:38:25.249Z,2.63
2022-08-26T09:41:31.167Z,2.97
2022-08-26T09:44:20.537Z,2.97
2022-08-26T09:47:10.364Z,2.50
2022-08-26T09:50:05.075Z,3.30
2022-08-26T09:53:15.108Z,2.50
2022-08-26T09:56:27.660Z,2.70
2022-08-26T09:59:30.482Z,2.83
2022-08-26T10:02:36.628Z,2.90
2022-08-26T10:05:32.053Z,3.07
2022-08-26T10:08:24.959Z,2.90
2022-08-26T10:11:22.321Z,2.70
2022-08-26T10:14:15.796Z,2.77
2022-08-26T10:17:09.061Z,3.00
2022-08-26T10:19:59.598Z,2.70
2022-08-26T10:22:54.908Z,3.00
2022-08-26T10:25:48.805Z,2.97
2022-08-26T10:28:41.579Z,2.90
2022-08-26T10:31:40.644Z,2.90
2022-08-26T10:34:29.392Z,2.93
2022-08-26T10:37:22.852Z,2.70
2022-08-26T10:40:18.487Z,2.90
2022-08-26T10:43:14.203Z,2.93
2022-08-26T10:46:06.882Z,3.10
2022-08-26T10:48:59.839Z,2.97
2022-08-26T10:51:57.732Z,3.43
2022-08-26T10:54:53.559Z,3.27
2022-08-26T10:57:50.133Z,3.17
2022-08-26T11:01:02.369Z,3.37
2022-08-26T11:04:11.373Z,2.98
2022-08-26T11:07:35.777Z,3.40
2022-08-26T11:11:02.992Z,3.53
2022-08-26T11:14:02.315Z,3.60
2022-08-26T11:16:52.229Z,3.20
2022-08-26T11:20:09.156Z,2.73
2022-08-26T11:23:50.790Z,2.87
2022-08-26T11:26:56.050Z,3.30
2022-08-26T11:30:04.143Z,3.03
2022-08-26T11:32:59.042Z,3.30
2022-08-26T11:35:52.997Z,3.73
2022-08-26T11:38:46.790Z,3.10
2022-08-26T11:41:39.852Z,3.20
2022-08-26T11:44:40.560Z,3.60
2022-08-26T11:47:34.690Z,3.23
2022-08-26T11:50:29.615Z,4.23
2022-08-26T11:53:23.017Z,3.23
2022-08-26T11:56:24.657Z,3.97
2022-08-26T11:59:25.354Z,3.17
2022-08-26T12:02:20.103Z,3.10
2022-08-26T12:05:14.800Z,3.83
2022-08-26T12:08:12.418Z,3.63
2022-08-26T12:11:11.134Z,3.87
2022-08-26T12:14:07.228Z,3.33
2022-08-26T12:17:12.162Z,3.13
2022-08-26T12:20:06.622Z,3.07
2022-08-26T12:23:00.447Z,3.33
2022-08-26T12:25:54.078Z,3.57
2022-08-26T12:28:53.447Z,4.07
2022-08-26T12:31:49.147Z,3.23
2022-08-26T12:34:42.354Z,3.97
2022-08-26T12:37:39.935Z,3.20
2022-08-26T12:40:40.831Z,3.40
2022-08-26T12:43:44.974Z,3.20
2022-08-26T12:46:37.864Z,3.13
2022-08-26T12:49:29.925Z,3.33
2022-08-26T12:52:32.142Z,3.10
2022-08-26T12:55:35.771Z,3.63
2022-08-26T12:58:34.159Z,2.70
2022-08-26T13:01:26.545Z,3.00
2022-08-26T13:04:36.808Z,3.10
2022-08-26T13:07:29.668Z,2.70
2022-08-26T13:10:39.028Z,3.90
2022-08-26T13:13:30.707Z,3.30
2022-08-26T13:16:24.709Z,3.40
2022-08-26T13:19:19.173Z,3.63
2022-08-26T13:22:15.380Z,2.80
2022-08-26T13:25:08.715Z,3.70
2022-08-26T13:28:01.452Z,2.80
2022-08-26T13:30:54.404Z,2.93
2022-08-26T13:33:46.746Z,3.97
2022-08-26T13:36:45.410Z,3.70
2022-08-26T13:39:38.425Z,3.53
2022-08-26T13:42:31.549Z,3.43
2022-08-26T13:45:23.517Z,3.33
2022-08-26T13:48:18.357Z,3.03
2022-08-26T13:51:12.598Z,3.70
2022-08-26T13:54:05.256Z,3.23
2022-08-26T13:56:57.341Z,3.90
2022-08-26T13:59:49.989Z,3.93
2022-08-26T14:02:42.534Z,3.53
2022-08-26T14:05:34.675Z,3.50
2022-08-26T14:08:27.931Z,3.67
2022-08-26T14:11:21.563Z,3.07
2022-08-26T14:14:13.437Z,3.40
2022-08-26T14:17:07.818Z,3.50
2022-08-26T14:20:00.362Z,3.80
2022-08-26T14:26:08.505Z,3.53
2022-08-26T14:29:02.790Z,3.10
2022-08-26T14:31:55.877Z,3.53
2022-08-26T14:34:48.055Z,4.07
2022-08-26T14:37:39.899Z,3.40
2022-08-26T14:40:33.953Z,3.40
2022-08-26T14:43:30.450Z,4.47
2022-08-26T14:46:22.604Z,3.63
2022-08-26T14:49:16.048Z,3.97
2022-08-26T14:52:08.858Z,3.60
2022-08-26T14:55:00.887Z,3.90
2022-08-26T14:57:53.544Z,3.70
2022-08-26T15:00:46.737Z,3.57
2022-08-26T15:03:38.307Z,3.63
2022-08-26T15:06:32.043Z,3.93
2022-08-26T15:09:25.176Z,3.83
2022-08-26T15:12:18.004Z,3.63
2022-08-26T15:15:13.926Z,3.97
2022-08-26T15:18:06.240Z,4.00
2022-08-26T15:20:59.003Z,3.87
2022-08-26T15:23:53.093Z,3.63
2022-08-26T15:26:46.908Z,3.53
2022-08-26T15:29:39.449Z,3.70
2022-08-26T15:32:32.404Z,3.50
2022-08-26T15:35:24.449Z,3.77
2022-08-26T15:38:18.307Z,4.93
2022-08-26T15:41:12.002Z,4.03
2022-08-26T15:44:04.376Z,4.30
2022-08-26T15:46:58.873Z,4.00
2022-08-26T15:49:51.219Z,5.20
2022-08-26T15:52:43.359Z,5.17
2022-08-26T15:55:35.430Z,5.20
2022-08-26T15:58:28.751Z,4.70
2022-08-26T16:01:27.143Z,3.90
2022-08-26T16:04:20.404Z,4.03
2022-08-26T16:07:13.079Z,3.93
2022-08-26T16:10:04.904Z,4.67
2022-08-26T16:12:57.620Z,4.20
2022-08-26T16:15:49.912Z,4.53
2022-08-26T16:18:42.587Z,4.97
2022-08-26T16:21:34.658Z,4.87
2022-08-26T16:24:30.413Z,4.30
2022-08-26T16:27:23.223Z,4.37
2022-08-26T16:30:19.475Z,4.50
2022-08-26T16:33:12.019Z,4.57
2022-08-26T16:36:15.106Z,3.90
2022-08-26T16:39:09.282Z,4.20
2022-08-26T16:42:01.701Z,4.17
2022-08-26T16:44:54.247Z,4.53
2022-08-26T16:47:47.659Z,4.57
2022-08-26T16:50:42.128Z,4.37
2022-08-26T16:53:34.541Z,3.90
2022-08-26T16:56:33.734Z,4.43
2022-08-26T16:59:26.913Z,4.87
2022-08-26T17:02:19.060Z,4.17
2022-08-26T17:05:12.896Z,4.20
2022-08-26T17:08:06.571Z,5.03
2022-08-26T17:11:00.185Z,5.03
2022-08-26T17:13:52.765Z,4.80
2022-08-26T17:16:45.015Z,4.50
2022-08-26T17:19:41.725Z,4.40
2022-08-26T17:22:43.941Z,4.27
2022-08-26T17:25:36.067Z,4.80
2022-08-26T17:28:28.531Z,4.23
2022-08-26T17:31:21.986Z,4.80
2022-08-26T17:34:13.977Z,4.83
2022-08-26T17:37:06.571Z,5.63
2022-08-26T17:39:58.820Z,5.10
2022-08-26T17:42:52.950Z,5.03
2022-08-26T17:45:45.067Z,5.53
2022-08-26T17:48:38.809Z,5.93
2022-08-26T17:51:31.207Z,6.30
2022-08-26T17:54:22.971Z,6.27
2022-08-26T17:57:15.573Z,5.70
2022-08-26T18:00:12.569Z,5.20
2022-08-26T18:03:04.595Z,5.43
2022-08-26T18:05:57.859Z,4.70
2022-08-26T18:08:50.106Z,4.83
2022-08-26T18:11:43.770Z,4.90
2022-08-26T18:14:37.360Z,5.43
2022-08-26T18:17:29.451Z,5.63
2022-08-26T18:20:22.954Z,5.03
2022-08-26T18:23:16.083Z,4.90
2022-08-26T18:26:08.641Z,5.90
2022-08-26T18:29:05.415Z,5.20
2022-08-26T18:31:57.233Z,5.00
2022-08-26T18:34:49.236Z,5.47
2022-08-26T18:37:41.686Z,5.23
2022-08-26T18:40:34.087Z,5.37
2022-08-26T18:43:26.250Z,9.10
2022-08-26T18:46:19.523Z,5.33
2022-08-26T18:49:12.662Z,5.03
2022-08-26T18:52:05.667Z,5.50
2022-08-26T18:54:57.797Z,5.87
2022-08-26T18:57:50.229Z,6.80
2022-08-26T19:00:42.202Z,5.77
2022-08-26T19:03:36.973Z,5.95
2022-08-26T19:06:33.362Z,6.40
2022-08-26T19:09:26.659Z,5.60
2022-08-26T19:12:19.810Z,7.27
2022-08-26T19:15:14.551Z,5.70
2022-08-26T19:18:07.780Z,6.00
2022-08-26T19:21:00.171Z,5.80
2022-08-26T19:23:52.927Z,6.33
2022-08-26T19:26:46.084Z,5.83
2022-08-26T19:29:39.315Z,6.03
2022-08-26T19:32:31.578Z,6.10
2022-08-26T19:35:23.681Z,5.30
2022-08-26T19:38:16.573Z,5.37
2022-08-26T19:41:11.601Z,5.30
2022-08-26T19:44:04.824Z,5.70
2022-08-26T19:46:58.101Z,5.57
2022-08-26T19:49:53.920Z,5.17
2022-08-26T19:52:46.197Z,5.43
2022-08-26T19:55:38.068Z,4.90
2022-08-26T19:58:30.016Z,5.03
2022-08-26T20:01:22.705Z,6.10
2022-08-26T20:04:15.719Z,5.53
2022-08-26T20:07:07.637Z,4.83
2022-08-26T20:10:00.010Z,6.30
2022-08-26T20:12:53.331Z,5.73
2022-08-26T20:15:46.168Z,5.43
2022-08-26T20:18:56.565Z,6.10
2022-08-26T20:21:48.950Z,5.47
2022-08-26T20:24:41.519Z,5.87
2022-08-26T20:27:38.302Z,5.63
2022-08-26T20:30:31.351Z,6.50
2022-08-26T20:33:23.690Z,5.77
2022-08-26T20:36:16.926Z,5.87
2022-08-26T20:39:10.908Z,5.07
2022-08-26T20:42:03.391Z,6.43
2022-08-26T20:44:56.243Z,5.83
2022-08-26T20:47:48.604Z,5.80
2022-08-26T20:50:40.345Z,6.67
2022-08-26T20:53:33.749Z,5.80
2022-08-26T20:56:25.996Z,5.73
2022-08-26T20:59:19.119Z,6.47
2022-08-26T21:02:11.313Z,5.83
2022-08-26T21:05:03.664Z,6.13
2022-08-26T21:07:56.152Z,5.80
2022-08-26T21:10:51.240Z,6.10
2022-08-26T21:14:03.862Z,5.87
2022-08-26T21:19:47.433Z,5.83
2022-08-26T21:22:39.263Z,6.30
2022-08-26T21:25:31.300Z,6.87
2022-08-26T21:28:23.269Z,6.47
2022-08-26T21:31:17.721Z,6.17
2022-08-26T21:34:10.155Z,6.13
2022-08-26T21:37:02.291Z,6.77
2022-08-26T21:40:07.331Z,5.23
2022-08-26T21:42:59.683Z,6.07
2022-08-26T21:45:51.824Z,6.20
2022-08-26T21:48:49.916Z,5.70
2022-08-26T21:51:45.081Z,5.90
2022-08-26T21:54:38.256Z,5.77
2022-08-26T21:57:32.013Z,7.20
2022-08-26T22:00:25.853Z,6.53
2022-08-26T22:03:17.923Z,6.00
2022-08-26T22:06:10.892Z,6.00
2022-08-26T22:09:03.267Z,5.73
2022-08-26T22:11:57.180Z,5.43
2022-08-26T22:14:49.774Z,5.50
2022-08-26T22:17:42.613Z,5.50
2022-08-26T22:20:35.933Z,7.20
2022-08-26T22:23:28.451Z,6.37
2022-08-26T22:26:25.668Z,6.77
2022-08-26T22:29:18.831Z,7.50
2022-08-26T22:32:11.311Z,7.33
2022-08-26T22:35:28.544Z,7.13
2022-08-26T22:38:16.883Z,7.63
2022-08-26T22:41:10.500Z,8.03
2022-08-26T22:44:02.875Z,8.20
2022-08-26T22:46:56.357Z,8.67
2022-08-26T22:49:48.419Z,7.67
2022-08-26T22:52:40.748Z,9.00
2022-08-26T22:55:32.890Z,9.00
2022-08-26T22:58:25.415Z,7.45
2022-08-26T23:01:24.054Z,7.63
2022-08-26T23:04:16.414Z,8.70
2022-08-26T23:07:08.706Z,8.27
2022-08-26T23:10:01.152Z,8.33
2022-08-26T23:12:54.092Z,8.97
2022-08-26T23:15:47.234Z,8.90
2022-08-26T23:18:40.665Z,10.20
2022-08-26T23:21:32.900Z,10.10
2022-08-26T23:24:24.992Z,9.77
2022-08-26T23:27:17.230Z,10.40
2022-08-26T23:30:17.251Z,9.17
2022-08-26T23:33:10.241Z,9.10
2022-08-26T23:36:09.811Z,8.83
2022-08-26T23:39:01.950Z,9.77
2022-08-26T23:41:54.587Z,9.67
2022-08-26T23:47:37.225Z,9.13
2022-08-26T23:50:44.618Z,8.90
2022-08-26T23:53:37.031Z,8.27
2022-08-26T23:56:29.388Z,8.63
2022-08-26T23:59:21.241Z,8.97
